Time;durP1;ratioP1;P1;durP2;ratioP2;P2;SDS_P1;SDS_P2;PMS_P1;PMS_P2;Temp;Humidity;BMP_temperature;BMP_pressure;BME280_temperature;BME280_humidity;BME280_pressure;Samples;Min_cycle;Max_cycle;Signal;HPM_P1;HPM_P2
2023/12/30 00:02:26;;;;;;;5.55;1.48;;;;;;;;;;5050478;27;100151;-77
2023/12/30 00:04:53;;;;;;;7.97;1.63;;;;;;;;;;5050190;27;98253;-77
2023/12/30 00:07:19;;;;;;;18.25;3.80;;;;;;;;;;5052441;27;99688;-77
2023/12/30 00:09:46;;;;;;;7.22;2.33;;;;;;;;;;5049319;27;98232;-77
2023/12/30 00:12:12;;;;;;;8.48;2.30;;;;;;;;;;5049087;27;99639;-78
2023/12/30 00:14:39;;;;;;;6.78;2.42;;;;;;;;;;5049263;27;100246;-77
2023/12/30 00:17:05;;;;;;;7.93;2.15;;;;;;;;;;5049803;27;98651;-77
2023/12/30 00:19:34;;;;;;;6.55;2.38;;;;;;;;;;5050259;27;99476;-77
2023/12/30 00:22:01;;;;;;;5.65;2.00;;;;;;;;;;5049047;27;100290;-77
2023/12/30 00:24:28;;;;;;;5.82;1.52;;;;;;;;;;5050059;27;98210;-76
2023/12/30 00:26:54;;;;;;;14.48;2.05;;;;;;;;;;5053293;27;99514;-77
2023/12/30 00:29:21;;;;;;;4.18;1.42;;;;;;;;;;5049377;27;98251;-76
2023/12/30 00:31:47;;;;;;;8.00;1.95;;;;;;;;;;5049943;27;98385;-77
2023/12/30 00:34:14;;;;;;;10.90;2.22;;;;;;;;;;5047344;27;102142;-77
2023/12/30 00:36:41;;;;;;;4.78;1.65;;;;;;;;;;5047847;27;98269;-77
2023/12/30 00:39:08;;;;;;;9.35;1.50;;;;;;;;;;5049583;27;98422;-76
2023/12/30 00:41:35;;;;;;;9.98;1.77;;;;;;;;;;5048855;27;99887;-77
2023/12/30 00:44:02;;;;;;;6.22;2.17;;;;;;;;;;5048024;27;98317;-77
2023/12/30 00:46:28;;;;;;;7.38;2.08;;;;;;;;;;5050278;27;98549;-77
2023/12/30 00:48:55;;;;;;;14.20;2.63;;;;;;;;;;5052539;27;99882;-76
2023/12/30 00:51:24;;;;;;;6.03;1.52;;;;;;;;;;5051019;27;99436;-76
2023/12/30 00:53:51;;;;;;;5.63;1.70;;;;;;;;;;5051051;27;98151;-77
2023/12/30 00:56:18;;;;;;;9.07;1.70;;;;;;;;;;5049169;27;98473;-77
2023/12/30 00:58:44;;;;;;;5.15;1.70;;;;;;;;;;5051085;27;98455;-77
2023/12/30 01:01:12;;;;;;;8.77;1.98;;;;;;;;;;5058636;27;100822;-76
2023/12/30 01:03:39;;;;;;;4.97;1.70;;;;;;;;;;5056392;27;98267;-76
2023/12/30 01:06:06;;;;;;;8.50;1.77;;;;;;;;;;5060115;27;98988;-76
2023/12/30 01:08:33;;;;;;;5.78;1.80;;;;;;;;;;5054290;27;99548;-78
2023/12/30 01:11:00;;;;;;;4.57;1.35;;;;;;;;;;5052881;27;98433;-77
2023/12/30 01:13:26;;;;;;;6.15;1.73;;;;;;;;;;5053154;27;100069;-76
2023/12/30 01:15:53;;;;;;;6.93;1.90;;;;;;;;;;5053718;27;98252;-77
2023/12/30 01:18:19;;;;;;;11.10;1.67;;;;;;;;;;5050609;27;97968;-76
2023/12/30 01:20:46;;;;;;;8.10;2.55;;;;;;;;;;5048980;27;100103;-76
2023/12/30 01:23:13;;;;;;;5.22;1.20;;;;;;;;;;5048214;27;98193;-77
2023/12/30 01:25:41;;;;;;;6.60;2.15;;;;;;;;;;5053486;27;98544;-77
2023/12/30 01:28:08;;;;;;;10.10;2.75;;;;;;;;;;5048661;27;99963;-76
2023/12/30 01:30:38;;;;;;;10.13;2.00;;;;;;;;;;5047105;27;98455;-77
2023/12/30 01:33:05;;;;;;;11.65;1.88;;;;;;;;;;5051629;27;98806;-76
2023/12/30 01:35:32;;;;;;;12.90;1.77;;;;;;;;;;5049041;27;98146;-77
2023/12/30 01:37:59;;;;;;;10.88;2.00;;;;;;;;;;5046714;27;101009;-76
2023/12/30 01:40:28;;;;;;;6.57;2.50;;;;;;;;;;5047509;27;101001;-76
2023/12/30 01:42:56;;;;;;;4.68;2.00;;;;;;;;;;5048682;27;98420;-76
2023/12/30 01:45:22;;;;;;;7.25;1.70;;;;;;;;;;5048275;27;98426;-77
2023/12/30 01:47:50;;;;;;;8.88;1.83;;;;;;;;;;5047462;27;100467;-78
2023/12/30 01:50:17;;;;;;;7.78;1.55;;;;;;;;;;5048457;27;98202;-76
2023/12/30 01:52:44;;;;;;;10.23;1.67;;;;;;;;;;5046627;27;99659;-76
2023/12/30 01:55:11;;;;;;;7.20;2.55;;;;;;;;;;5051716;27;100185;-76
2023/12/30 01:57:38;;;;;;;10.85;2.08;;;;;;;;;;5048727;27;98812;-76
2023/12/30 02:00:05;;;;;;;7.03;1.58;;;;;;;;;;5047770;27;101056;-77
2023/12/30 02:02:37;;;;;;;7.03;2.03;;;;;;;;;;5048558;27;98333;-76
2023/12/30 02:05:04;;;;;;;5.68;1.90;;;;;;;;;;5048756;27;98976;-77
2023/12/30 02:07:31;;;;;;;2.88;1.50;;;;;;;;;;5046266;27;101703;-75
2023/12/30 02:09:57;;;;;;;6.32;1.55;;;;;;;;;;5046783;27;98354;-76
2023/12/30 02:12:23;;;;;;;9.68;2.08;;;;;;;;;;5047176;27;98383;-76
2023/12/30 02:14:50;;;;;;;4.10;2.08;;;;;;;;;;5046257;27;100407;-77
2023/12/30 02:17:16;;;;;;;8.95;1.50;;;;;;;;;;5049823;27;98153;-77
2023/12/30 02:19:43;;;;;;;11.80;2.10;;;;;;;;;;5048240;27;98649;-76
2023/12/30 02:22:10;;;;;;;3.60;1.60;;;;;;;;;;5047456;27;98237;-77
2023/12/30 02:24:36;;;;;;;6.57;1.33;;;;;;;;;;5048422;27;98403;-77
2023/12/30 02:27:03;;;;;;;5.60;1.70;;;;;;;;;;5047342;27;98937;-75
2023/12/30 02:29:29;;;;;;;3.13;1.40;;;;;;;;;;5048964;27;98267;-77
2023/12/30 02:31:56;;;;;;;5.60;1.58;;;;;;;;;;5047096;27;102182;-77
2023/12/30 02:34:22;;;;;;;7.07;1.77;;;;;;;;;;5048184;27;98130;-76
2023/12/30 02:36:49;;;;;;;9.90;1.73;;;;;;;;;;5056676;27;98166;-77
2023/12/30 02:39:17;;;;;;;9.90;1.75;;;;;;;;;;5047601;27;99859;-77
2023/12/30 02:41:45;;;;;;;11.98;1.63;;;;;;;;;;5047658;27;99099;-76
2023/12/30 02:44:18;;;;;;;5.43;1.60;;;;;;;;;;5047669;27;99347;-75
2023/12/30 02:46:45;;;;;;;5.32;1.33;;;;;;;;;;5046615;27;99846;-76
2023/12/30 02:49:12;;;;;;;6.38;1.58;;;;;;;;;;5047624;27;98161;-76
2023/12/30 02:51:38;;;;;;;9.68;1.88;;;;;;;;;;5047160;27;99758;-77
2023/12/30 02:54:05;;;;;;;13.25;2.22;;;;;;;;;;5049036;27;98754;-77
2023/12/30 02:56:31;;;;;;;5.82;1.65;;;;;;;;;;5050593;27;98253;-76
2023/12/30 02:58:59;;;;;;;5.60;1.83;;;;;;;;;;5050452;27;99419;-76
2023/12/30 03:01:27;;;;;;;11.77;1.92;;;;;;;;;;5049280;27;99353;-76
2023/12/30 03:03:54;;;;;;;6.97;2.40;;;;;;;;;;5050647;27;99106;-77
2023/12/30 03:06:21;;;;;;;4.55;1.40;;;;;;;;;;5051206;27;99777;-77
2023/12/30 03:08:49;;;;;;;10.88;1.75;;;;;;;;;;5050064;27;98353;-77
2023/12/30 03:11:16;;;;;;;12.30;3.15;;;;;;;;;;5050081;27;99445;-76
2023/12/30 03:13:42;;;;;;;13.45;2.08;;;;;;;;;;5049619;27;100022;-76
2023/12/30 03:16:16;;;;;;;6.25;1.42;;;;;;;;;;5050560;27;98233;-76
2023/12/30 03:18:43;;;;;;;6.10;1.90;;;;;;;;;;5051414;27;100738;-76
2023/12/30 03:21:11;;;;;;;10.00;1.60;;;;;;;;;;5054183;27;98727;-76
2023/12/30 03:23:38;;;;;;;11.38;2.95;;;;;;;;;;5050582;27;98725;-76
2023/12/30 03:26:05;;;;;;;6.75;1.60;;;;;;;;;;5049531;27;99977;-77
2023/12/30 03:28:32;;;;;;;6.30;2.03;;;;;;;;;;5049693;27;98177;-76
2023/12/30 03:30:59;;;;;;;2.65;1.42;;;;;;;;;;5050245;27;99007;-78
2023/12/30 03:33:26;;;;;;;2.95;1.33;;;;;;;;;;5049453;27;100207;-75
2023/12/30 03:35:53;;;;;;;7.72;1.20;;;;;;;;;;5050936;27;98153;-77
2023/12/30 03:38:20;;;;;;;5.32;1.85;;;;;;;;;;5048515;27;99814;-75
2023/12/30 03:40:46;;;;;;;6.97;2.85;;;;;;;;;;5050426;27;101236;-78
2023/12/30 03:43:13;;;;;;;6.78;1.58;;;;;;;;;;5052742;27;98246;-77
2023/12/30 03:45:40;;;;;;;9.20;2.42;;;;;;;;;;5050407;27;99278;-76
2023/12/30 03:48:07;;;;;;;4.78;1.70;;;;;;;;;;5050745;27;98023;-77
2023/12/30 03:50:36;;;;;;;7.97;1.33;;;;;;;;;;5050227;27;98672;-78
2023/12/30 03:53:03;;;;;;;5.57;1.95;;;;;;;;;;5049254;27;98913;-77
2023/12/30 03:55:30;;;;;;;10.30;2.08;;;;;;;;;;5049514;27;98305;-77
2023/12/30 03:57:57;;;;;;;5.88;1.50;;;;;;;;;;5050548;27;98170;-76
2023/12/30 04:00:23;;;;;;;7.88;1.95;;;;;;;;;;5049623;27;100344;-77
2023/12/30 04:02:50;;;;;;;6.57;1.55;;;;;;;;;;5050407;27;98546;-77
2023/12/30 04:05:16;;;;;;;21.38;2.08;;;;;;;;;;5053580;27;98293;-77
2023/12/30 04:07:43;;;;;;;4.57;1.60;;;;;;;;;;5049875;27;98891;-75
2023/12/30 04:10:12;;;;;;;5.65;1.60;;;;;;;;;;5048915;27;101457;-76
2023/12/30 04:12:39;;;;;;;8.95;2.03;;;;;;;;;;5047150;27;100405;-78
2023/12/30 04:15:07;;;;;;;4.43;2.40;;;;;;;;;;5047694;27;98338;-77
2023/12/30 04:17:33;;;;;;;15.13;1.88;;;;;;;;;;5048812;27;101660;-77
2023/12/30 04:20:00;;;;;;;5.00;1.90;;;;;;;;;;5047815;27;101655;-77
2023/12/30 04:22:28;;;;;;;6.65;2.05;;;;;;;;;;5048993;27;98170;-76
2023/12/30 04:24:56;;;;;;;3.10;1.45;;;;;;;;;;5048747;27;100976;-77
2023/12/30 04:27:24;;;;;;;6.78;1.60;;;;;;;;;;5052382;27;98224;-77
2023/12/30 04:29:50;;;;;;;6.43;1.58;;;;;;;;;;5048639;27;100990;-76
2023/12/30 04:32:18;;;;;;;3.40;1.35;;;;;;;;;;5048380;27;102235;-76
2023/12/30 04:34:45;;;;;;;9.52;2.10;;;;;;;;;;5048876;27;98276;-76
2023/12/30 04:37:12;;;;;;;3.22;2.10;;;;;;;;;;5048365;27;100786;-77
2023/12/30 04:39:39;;;;;;;7.70;1.95;;;;;;;;;;5047694;27;100297;-78
2023/12/30 04:42:05;;;;;;;3.90;1.55;;;;;;;;;;5048709;27;98409;-76
2023/12/30 04:44:32;;;;;;;6.32;1.65;;;;;;;;;;5050015;27;98418;-76
2023/12/30 04:46:58;;;;;;;5.32;1.45;;;;;;;;;;5052656;27;99906;-77
2023/12/30 04:49:25;;;;;;;6.80;1.63;;;;;;;;;;5048123;27;100771;-77
2023/12/30 04:51:52;;;;;;;12.50;1.92;;;;;;;;;;5047216;27;101294;-77
2023/12/30 04:54:19;;;;;;;5.57;2.08;;;;;;;;;;5047103;27;98380;-76
2023/12/30 04:56:47;;;;;;;23.15;2.22;;;;;;;;;;5047978;27;101173;-77
2023/12/30 04:59:14;;;;;;;7.53;1.58;;;;;;;;;;5047848;27;101749;-76
2023/12/30 05:01:40;;;;;;;5.85;1.85;;;;;;;;;;5049121;27;98386;-77
2023/12/30 05:04:07;;;;;;;11.65;4.80;;;;;;;;;;5046904;27;99617;-76
2023/12/30 05:06:33;;;;;;;8.73;1.70;;;;;;;;;;5047853;27;101781;-77
2023/12/30 05:09:00;;;;;;;5.30;1.35;;;;;;;;;;5051772;27;98454;-76
2023/12/30 05:11:27;;;;;;;10.13;1.67;;;;;;;;;;5048756;27;98959;-77
2023/12/30 05:13:56;;;;;;;4.95;2.40;;;;;;;;;;5048935;27;98295;-76
2023/12/30 05:16:22;;;;;;;12.55;1.73;;;;;;;;;;5048569;27;99741;-77
2023/12/30 05:18:49;;;;;;;11.75;2.40;;;;;;;;;;5049006;27;99914;-77
2023/12/30 05:21:17;;;;;;;6.68;1.85;;;;;;;;;;5049015;27;98273;-76
2023/12/30 05:23:44;;;;;;;10.85;1.80;;;;;;;;;;5047343;27;99456;-76
2023/12/30 05:26:14;;;;;;;7.15;2.08;;;;;;;;;;5048733;27;99975;-75
2023/12/30 05:28:40;;;;;;;11.63;2.30;;;;;;;;;;5048281;27;98342;-77
2023/12/30 05:31:07;;;;;;;25.02;2.40;;;;;;;;;;5051001;27;99468;-77
2023/12/30 05:33:34;;;;;;;14.65;1.42;;;;;;;;;;5049069;27;98201;-77
2023/12/30 05:36:00;;;;;;;9.75;2.05;;;;;;;;;;5048530;27;100095;-77
2023/12/30 05:38:27;;;;;;;13.32;2.70;;;;;;;;;;5047865;27;99943;-77
2023/12/30 05:40:53;;;;;;;7.57;1.55;;;;;;;;;;5049067;27;98365;-76
2023/12/30 05:43:20;;;;;;;8.13;2.20;;;;;;;;;;5048488;27;100455;-77
2023/12/30 05:45:48;;;;;;;4.25;1.90;;;;;;;;;;5048067;27;99852;-77
2023/12/30 05:48:14;;;;;;;8.32;1.67;;;;;;;;;;5048523;27;98360;-77
2023/12/30 05:50:41;;;;;;;10.10;1.55;;;;;;;;;;5048941;27;99610;-77
2023/12/30 05:53:10;;;;;;;1.75;1.42;;;;;;;;;;5050040;27;99978;-76
2023/12/30 05:55:38;;;;;;;10.40;1.52;;;;;;;;;;5048471;27;100101;-76
2023/12/30 05:58:05;;;;;;;9.43;2.17;;;;;;;;;;5047570;27;99967;-76
2023/12/30 06:00:31;;;;;;;8.85;1.70;;;;;;;;;;5048891;27;98222;-77
2023/12/30 06:02:58;;;;;;;5.90;1.85;;;;;;;;;;5048210;27;99392;-77
2023/12/30 06:05:25;;;;;;;8.25;1.92;;;;;;;;;;5047775;27;99776;-77
2023/12/30 06:07:52;;;;;;;11.25;1.77;;;;;;;;;;5048440;27;98223;-76
2023/12/30 06:10:19;;;;;;;16.15;1.70;;;;;;;;;;5047709;27;99427;-76
2023/12/30 06:12:45;;;;;;;14.52;2.20;;;;;;;;;;5046482;27;99935;-77
2023/12/30 06:15:12;;;;;;;6.40;1.85;;;;;;;;;;5051347;27;99002;-77
2023/12/30 06:17:38;;;;;;;9.07;1.80;;;;;;;;;;5047425;27;99946;-77
2023/12/30 06:20:07;;;;;;;3.63;1.50;;;;;;;;;;5047256;27;98425;-76
2023/12/30 06:22:34;;;;;;;5.72;1.63;;;;;;;;;;5048419;27;99748;-76
2023/12/30 06:25:00;;;;;;;8.68;1.98;;;;;;;;;;5047579;27;99863;-76
2023/12/30 06:27:27;;;;;;;4.20;1.95;;;;;;;;;;5047525;27;98274;-77
2023/12/30 06:29:53;;;;;;;13.32;2.20;;;;;;;;;;5048644;27;99444;-76
2023/12/30 06:32:20;;;;;;;13.73;1.88;;;;;;;;;;5048378;27;99249;-77
2023/12/30 06:34:46;;;;;;;6.82;1.85;;;;;;;;;;5051995;27;98210;-76
2023/12/30 06:37:13;;;;;;;6.13;1.88;;;;;;;;;;5053555;27;99927;-76
2023/12/30 06:39:39;;;;;;;10.43;1.98;;;;;;;;;;5048381;27;98240;-76
2023/12/30 06:42:06;;;;;;;5.72;2.10;;;;;;;;;;5046357;27;99620;-76
2023/12/30 06:44:32;;;;;;;6.57;1.88;;;;;;;;;;5047738;27;99857;-76
2023/12/30 06:46:59;;;;;;;9.57;1.92;;;;;;;;;;5047473;27;98295;-76
2023/12/30 06:49:25;;;;;;;9.77;2.00;;;;;;;;;;5047006;27;99061;-77
2023/12/30 06:51:52;;;;;;;2.42;1.08;;;;;;;;;;5048564;27;99896;-75
2023/12/30 06:54:19;;;;;;;5.25;1.17;;;;;;;;;;5047615;27;98262;-78
2023/12/30 06:56:47;;;;;;;19.50;2.45;;;;;;;;;;5057893;27;99808;-75
2023/12/30 06:59:13;;;;;;;9.20;2.90;;;;;;;;;;5047692;27;98201;-75
2023/12/30 07:01:41;;;;;;;9.63;2.63;;;;;;;;;;5047733;27;99578;-77
2023/12/30 07:04:07;;;;;;;7.50;1.80;;;;;;;;;;5047234;27;100128;-77
2023/12/30 07:06:34;;;;;;;6.55;1.83;;;;;;;;;;5046876;27;98201;-76
2023/12/30 07:09:00;;;;;;;8.85;2.40;;;;;;;;;;5046552;27;99829;-76
2023/12/30 07:11:28;;;;;;;6.25;1.88;;;;;;;;;;5047732;27;99204;-76
2023/12/30 07:13:54;;;;;;;11.65;3.05;;;;;;;;;;5052030;27;98344;-76
2023/12/30 07:16:21;;;;;;;6.70;2.05;;;;;;;;;;5046964;27;98630;-76
2023/12/30 07:18:48;;;;;;;10.98;2.60;;;;;;;;;;5050613;27;100381;-76
2023/12/30 07:21:14;;;;;;;10.15;1.92;;;;;;;;;;5047214;27;99318;-77
2023/12/30 07:23:42;;;;;;;9.02;1.85;;;;;;;;;;5046088;27;99084;-76
2023/12/30 07:26:09;;;;;;;12.50;2.38;;;;;;;;;;5046837;27;98391;-76
2023/12/30 07:28:36;;;;;;;6.95;1.90;;;;;;;;;;5047330;27;99746;-76
2023/12/30 07:31:02;;;;;;;2.88;1.63;;;;;;;;;;5044590;27;99142;-76
2023/12/30 07:33:29;;;;;;;6.13;2.60;;;;;;;;;;5046849;27;98115;-76
2023/12/30 07:35:57;;;;;;;13.45;2.65;;;;;;;;;;5046797;27;99373;-76
2023/12/30 07:38:23;;;;;;;9.73;4.57;;;;;;;;;;5046275;27;100452;-76
2023/12/30 07:40:49;;;;;;;18.73;5.95;;;;;;;;;;5050378;27;98296;-76
2023/12/30 07:43:16;;;;;;;12.63;7.20;;;;;;;;;;5046813;27;100022;-76
2023/12/30 07:45:43;;;;;;;14.32;9.00;;;;;;;;;;5045122;27;99028;-77
2023/12/30 07:48:10;;;;;;;39.35;17.55;;;;;;;;;;5050123;27;99466;-77
2023/12/30 07:50:37;;;;;;;43.50;19.42;;;;;;;;;;5049576;27;99911;-77
2023/12/30 07:53:03;;;;;;;47.53;18.95;;;;;;;;;;5050361;27;98256;-77
2023/12/30 07:55:30;;;;;;;46.47;18.58;;;;;;;;;;5049739;27;99388;-76
2023/12/30 07:57:57;;;;;;;32.70;15.98;;;;;;;;;;5050479;27;99921;-76
2023/12/30 08:00:23;;;;;;;35.55;14.35;;;;;;;;;;5056331;27;98177;-76
2023/12/30 08:02:50;;;;;;;24.25;12.90;;;;;;;;;;5055018;27;99418;-76
2023/12/30 08:05:17;;;;;;;19.92;12.18;;;;;;;;;;5050746;27;98264;-76
2023/12/30 08:07:44;;;;;;;22.63;9.88;;;;;;;;;;5054829;27;99815;-76
2023/12/30 08:10:12;;;;;;;21.90;9.45;;;;;;;;;;5058314;27;98769;-75
2023/12/30 08:12:38;;;;;;;27.25;9.65;;;;;;;;;;5054043;27;98225;-75
2023/12/30 08:15:05;;;;;;;18.02;9.15;;;;;;;;;;5054769;27;99746;-74
2023/12/30 08:17:31;;;;;;;22.92;8.52;;;;;;;;;;5052632;27;100025;-76
2023/12/30 08:19:58;;;;;;;32.58;10.10;;;;;;;;;;5049768;27;98261;-76
2023/12/30 08:22:24;;;;;;;23.70;10.90;;;;;;;;;;5051485;27;99600;-76
2023/12/30 08:24:51;;;;;;;17.38;9.15;;;;;;;;;;5054153;27;100130;-77
2023/12/30 08:27:18;;;;;;;15.25;9.20;;;;;;;;;;5051605;27;99334;-76
2023/12/30 08:29:44;;;;;;;19.85;7.30;;;;;;;;;;5049731;27;99967;-76
2023/12/30 08:32:10;;;;;;;14.90;6.10;;;;;;;;;;5049619;27;98219;-77
2023/12/30 08:34:37;;;;;;;18.98;5.30;;;;;;;;;;5049053;27;99340;-76
2023/12/30 08:37:08;;;;;;;16.55;4.63;;;;;;;;;;5048857;27;98940;-77
2023/12/30 08:39:38;;;;;;;17.10;4.00;;;;;;;;;;5050051;27;98514;-76
2023/12/30 08:42:05;;;;;;;18.77;3.15;;;;;;;;;;5049067;27;98969;-76
2023/12/30 08:44:32;;;;;;;15.13;3.83;;;;;;;;;;5052173;27;100574;-76
2023/12/30 08:46:58;;;;;;;9.43;3.15;;;;;;;;;;5048598;27;99453;-76
2023/12/30 08:49:25;;;;;;;12.90;2.45;;;;;;;;;;5049699;27;100229;-77
2023/12/30 08:51:52;;;;;;;24.77;3.53;;;;;;;;;;5049637;27;98221;-76
2023/12/30 08:54:18;;;;;;;8.15;2.63;;;;;;;;;;5048568;27;99505;-77
2023/12/30 08:56:45;;;;;;;14.10;3.33;;;;;;;;;;5049489;27;100015;-77
2023/12/30 08:59:11;;;;;;;15.85;3.95;;;;;;;;;;5047475;27;98198;-76
2023/12/30 09:01:38;;;;;;;12.45;3.58;;;;;;;;;;5049034;27;98473;-75
2023/12/30 09:04:04;;;;;;;10.65;3.33;;;;;;;;;;5048848;27;99938;-76
2023/12/30 09:06:31;;;;;;;18.83;3.88;;;;;;;;;;5052896;27;99069;-76
2023/12/30 09:08:57;;;;;;;13.27;3.95;;;;;;;;;;5047330;27;99882;-75
2023/12/30 09:11:24;;;;;;;10.27;4.07;;;;;;;;;;5049363;27;98245;-75
2023/12/30 09:13:51;;;;;;;11.80;3.47;;;;;;;;;;5049112;27;99532;-76
2023/12/30 09:16:18;;;;;;;26.02;4.72;;;;;;;;;;5048172;27;100322;-77
2023/12/30 09:18:45;;;;;;;18.98;4.32;;;;;;;;;;5049156;27;98645;-77
2023/12/30 09:21:12;;;;;;;29.42;4.38;;;;;;;;;;5048865;27;99331;-77
2023/12/30 09:23:39;;;;;;;21.80;4.18;;;;;;;;;;5048222;27;99940;-76
2023/12/30 09:26:05;;;;;;;12.07;3.80;;;;;;;;;;5049075;27;98273;-76
2023/12/30 09:28:33;;;;;;;15.07;5.38;;;;;;;;;;5052027;27;99831;-76
2023/12/30 09:30:59;;;;;;;20.00;4.57;;;;;;;;;;5047832;27;98417;-76
2023/12/30 09:33:26;;;;;;;29.65;5.53;;;;;;;;;;5048159;27;99486;-76
2023/12/30 09:35:54;;;;;;;14.75;5.25;;;;;;;;;;5048539;27;100047;-76
2023/12/30 09:38:23;;;;;;;19.75;3.50;;;;;;;;;;5048330;27;98192;-76
2023/12/30 09:40:52;;;;;;;16.88;4.68;;;;;;;;;;5048747;27;99313;-76
2023/12/30 09:43:25;;;;;;;14.27;4.70;;;;;;;;;;5047712;27;99968;-76
2023/12/30 09:45:53;;;;;;;11.15;5.53;;;;;;;;;;5048697;27;98242;-76
2023/12/30 09:48:20;;;;;;;18.45;4.70;;;;;;;;;;5048352;27;99406;-76
2023/12/30 09:50:49;;;;;;;15.77;6.18;;;;;;;;;;5051232;27;100092;-77
2023/12/30 09:53:16;;;;;;;25.38;4.55;;;;;;;;;;5048545;27;99834;-77
2023/12/30 09:55:46;;;;;;;21.67;6.70;;;;;;;;;;5048247;27;100591;-76
2023/12/30 09:58:13;;;;;;;22.35;6.78;;;;;;;;;;5046913;27;98509;-76
2023/12/30 10:00:40;;;;;;;20.23;5.93;;;;;;;;;;5048427;27;99754;-76
2023/12/30 10:03:07;;;;;;;15.98;6.03;;;;;;;;;;5047954;27;99943;-76
2023/12/30 10:05:34;;;;;;;29.20;6.70;;;;;;;;;;5047868;27;98205;-76
2023/12/30 10:08:03;;;;;;;32.00;5.82;;;;;;;;;;5047525;27;99370;-76
2023/12/30 10:10:46;;;;;;;12.90;5.40;;;;;;;;;;5046923;27;99376;-76
2023/12/30 10:13:12;;;;;;;;;;;;;;;;;;5050990;27;98328;-76
2023/12/30 10:15:40;;;;;;;16.73;6.32;;;;;;;;;;5047251;27;129730;-76
2023/12/30 10:18:07;;;;;;;24.80;7.13;;;;;;;;;;5047848;27;98249;-76
2023/12/30 10:20:37;;;;;;;10.43;5.15;;;;;;;;;;5047651;27;98801;-76
2023/12/30 10:23:04;;;;;;;14.60;6.18;;;;;;;;;;5046884;27;101601;-76
2023/12/30 10:25:31;;;;;;;21.15;6.68;;;;;;;;;;5047443;27;98547;-76
2023/12/30 10:27:58;;;;;;;19.63;4.82;;;;;;;;;;5047823;27;99498;-75
2023/12/30 10:30:24;;;;;;;17.90;5.88;;;;;;;;;;5057468;27;100060;-76
2023/12/30 10:32:51;;;;;;;10.27;3.15;;;;;;;;;;5047567;27;98167;-75
2023/12/30 10:35:17;;;;;;;11.85;3.80;;;;;;;;;;5050785;27;99929;-77
2023/12/30 10:37:46;;;;;;;22.00;4.50;;;;;;;;;;5047451;27;98239;-76
2023/12/30 10:40:13;;;;;;;13.15;3.42;;;;;;;;;;5047125;27;98628;-75
2023/12/30 10:42:40;;;;;;;13.75;4.22;;;;;;;;;;5047119;27;99030;-75
2023/12/30 10:45:07;;;;;;;11.20;3.22;;;;;;;;;;5047510;27;98237;-76
2023/12/30 10:47:37;;;;;;;12.45;3.60;;;;;;;;;;5046555;27;98595;-76
2023/12/30 10:50:06;;;;;;;14.07;3.60;;;;;;;;;;5052935;27;98608;-76
2023/12/30 10:52:35;;;;;;;14.18;3.33;;;;;;;;;;5046992;27;98414;-76
2023/12/30 10:55:14;;;;;;;11.32;3.95;;;;;;;;;;5049098;27;98389;-77
2023/12/30 10:57:45;;;;;;;10.00;3.38;;;;;;;;;;5047859;27;98099;-77
2023/12/30 11:00:14;;;;;;;18.10;3.67;;;;;;;;;;5047292;27;98553;-76
2023/12/30 11:02:41;;;;;;;11.05;2.88;;;;;;;;;;5046219;27;99151;-76
2023/12/30 11:05:11;;;;;;;16.10;3.80;;;;;;;;;;5046975;27;98290;-76
2023/12/30 11:07:38;;;;;;;10.40;3.13;;;;;;;;;;5047085;27;100036;-76
2023/12/30 11:10:18;;;;;;;15.35;2.75;;;;;;;;;;5046975;27;100153;-75
2023/12/30 11:12:45;;;;;;;11.60;2.63;;;;;;;;;;5046324;27;98242;-75
2023/12/30 11:15:25;;;;;;;22.85;2.42;;;;;;;;;;5046619;27;99619;-76
2023/12/30 11:17:51;;;;;;;10.18;2.55;;;;;;;;;;5050896;27;100219;-77
2023/12/30 11:20:32;;;;;;;14.73;2.95;;;;;;;;;;5047422;27;99323;-77
2023/12/30 11:22:59;;;;;;;12.38;3.00;;;;;;;;;;5048559;27;98981;-76
2023/12/30 11:25:34;;;;;;;13.57;3.30;;;;;;;;;;5051060;27;98245;-76
2023/12/30 11:28:13;;;;;;;16.25;3.45;;;;;;;;;;5050509;27;99223;-76
2023/12/30 11:30:41;;;;;;;10.30;3.15;;;;;;;;;;5050217;27;99830;-76
2023/12/30 11:33:08;;;;;;;11.63;3.28;;;;;;;;;;5050586;27;98311;-76
2023/12/30 11:35:34;;;;;;;19.08;3.33;;;;;;;;;;5049372;27;98723;-76
2023/12/30 11:38:04;;;;;;;13.27;3.78;;;;;;;;;;5049026;27;99092;-76
2023/12/30 11:40:31;;;;;;;13.05;3.65;;;;;;;;;;5054149;27;98202;-76
2023/12/30 11:42:57;;;;;;;21.13;4.45;;;;;;;;;;5049609;27;100103;-76
2023/12/30 11:45:24;;;;;;;11.13;3.20;;;;;;;;;;5050670;27;98253;-76
2023/12/30 11:47:50;;;;;;;14.68;4.22;;;;;;;;;;5050687;27;99519;-76
2023/12/30 11:50:18;;;;;;;8.57;3.42;;;;;;;;;;5049260;27;99801;-75
2023/12/30 11:52:45;;;;;;;11.98;3.65;;;;;;;;;;5049914;27;98294;-76
2023/12/30 11:55:12;;;;;;;28.17;3.97;;;;;;;;;;5050580;27;99409;-76
2023/12/30 11:57:38;;;;;;;15.63;3.83;;;;;;;;;;5049510;27;100348;-76
2023/12/30 12:00:07;;;;;;;19.17;4.38;;;;;;;;;;5049932;27;98352;-76
2023/12/30 12:02:37;;;;;;;14.50;4.05;;;;;;;;;;5052972;27;98145;-76
2023/12/30 12:05:05;;;;;;;12.68;4.65;;;;;;;;;;5049452;27;98249;-76
2023/12/30 12:07:31;;;;;;;10.45;5.28;;;;;;;;;;5049850;27;98527;-76
2023/12/30 12:09:58;;;;;;;18.30;5.20;;;;;;;;;;5049790;27;100044;-75
2023/12/30 12:12:33;;;;;;;18.65;5.07;;;;;;;;;;5049125;27;98735;-76
2023/12/30 12:15:00;;;;;;;20.60;6.45;;;;;;;;;;5049256;27;98739;-76
2023/12/30 12:17:26;;;;;;;22.13;6.00;;;;;;;;;;5049306;27;98873;-76
2023/12/30 12:19:53;;;;;;;13.13;6.00;;;;;;;;;;5049546;27;98245;-75
2023/12/30 12:22:21;;;;;;;20.67;5.65;;;;;;;;;;5049841;27;99324;-76
2023/12/30 12:24:47;;;;;;;13.77;6.15;;;;;;;;;;5051708;27;99066;-77
2023/12/30 12:27:21;;;;;;;16.33;5.30;;;;;;;;;;5048701;27;99664;-76
2023/12/30 12:29:51;;;;;;;21.10;6.85;;;;;;;;;;5049483;27;99790;-76
2023/12/30 12:32:21;;;;;;;16.33;5.97;;;;;;;;;;5048786;27;98258;-76
2023/12/30 12:34:47;;;;;;;23.50;7.60;;;;;;;;;;5050124;27;99548;-77
2023/12/30 12:37:15;;;;;;;17.65;7.07;;;;;;;;;;5049505;27;99915;-76
2023/12/30 12:39:43;;;;;;;14.80;6.40;;;;;;;;;;5049085;27;98237;-76
2023/12/30 12:42:13;;;;;;;18.00;7.60;;;;;;;;;;5049160;27;99563;-76
2023/12/30 12:44:55;;;;;;;24.65;7.93;;;;;;;;;;5049641;27;100312;-75
2023/12/30 12:47:21;;;;;;;15.75;7.38;;;;;;;;;;5052498;27;98499;-75
2023/12/30 12:49:48;;;;;;;24.48;7.97;;;;;;;;;;5048825;27;99090;-75
2023/12/30 12:52:15;;;;;;;24.45;8.20;;;;;;;;;;5048524;27;98220;-76
2023/12/30 12:54:42;;;;;;;36.63;11.40;;;;;;;;;;5048968;27;99295;-76
2023/12/30 12:57:08;;;;;;;34.58;9.73;;;;;;;;;;5048786;27;99971;-76
2023/12/30 12:59:35;;;;;;;19.20;8.57;;;;;;;;;;5049649;27;98256;-76
2023/12/30 13:02:02;;;;;;;19.63;7.68;;;;;;;;;;5048482;27;99334;-74
2023/12/30 13:04:28;;;;;;;23.20;8.23;;;;;;;;;;5049129;27;99868;-75
2023/12/30 13:06:55;;;;;;;46.65;11.20;;;;;;;;;;5052360;27;98217;-75
2023/12/30 13:12:07;;;;;;;19.55;8.85;;;;;;;;;;5048217;27;98068;-76
2023/12/30 13:14:34;;;;;;;31.33;9.30;;;;;;;;;;5048543;27;99545;-77
2023/12/30 13:17:04;;;;;;;13.80;8.18;;;;;;;;;;5048065;27;99871;-76
2023/12/30 13:19:31;;;;;;;24.30;7.75;;;;;;;;;;5048862;27;99063;-76
2023/12/30 13:21:58;;;;;;;28.25;10.02;;;;;;;;;;5048038;27;99511;-76
2023/12/30 13:24:24;;;;;;;36.10;9.90;;;;;;;;;;5048835;27;99914;-76
2023/12/30 13:26:51;;;;;;;23.05;9.60;;;;;;;;;;5049013;27;98454;-76
2023/12/30 13:29:19;;;;;;;22.08;8.85;;;;;;;;;;5051167;27;99491;-76
2023/12/30 13:31:47;;;;;;;27.15;10.35;;;;;;;;;;5049291;27;98905;-76
2023/12/30 13:34:15;;;;;;;23.80;7.57;;;;;;;;;;5048869;27;99170;-76
2023/12/30 13:36:42;;;;;;;20.55;7.10;;;;;;;;;;5047266;27;98984;-76
2023/12/30 13:39:13;;;;;;;21.15;6.80;;;;;;;;;;5047856;27;98297;-76
2023/12/30 13:41:41;;;;;;;21.65;6.72;;;;;;;;;;5048148;27;99591;-76
2023/12/30 13:44:13;;;;;;;27.15;7.25;;;;;;;;;;5046836;27;100311;-76
2023/12/30 13:51:55;;;;;;;12.15;5.55;;;;;;;;;;5052181;27;120819;-76
2023/12/30 13:54:23;;;;;;;14.30;5.13;;;;;;;;;;5048946;27;99534;-76
2023/12/30 13:57:00;;;;;;;13.02;5.35;;;;;;;;;;5047851;27;99465;-75
2023/12/30 13:59:29;;;;;;;16.75;4.82;;;;;;;;;;5048543;27;98305;-76
2023/12/30 14:01:56;;;;;;;20.13;4.35;;;;;;;;;;5048373;27;99346;-76
2023/12/30 14:04:25;;;;;;;13.63;4.45;;;;;;;;;;5047229;27;100498;-76
2023/12/30 14:06:52;;;;;;;11.68;4.65;;;;;;;;;;5047606;27;98178;-76
2023/12/30 14:09:37;;;;;;;7.88;4.00;;;;;;;;;;5048068;27;99424;-76
2023/12/30 14:12:06;;;;;;;17.55;4.10;;;;;;;;;;5047176;27;100044;-76
2023/12/30 14:14:45;;;;;;;9.43;4.07;;;;;;;;;;5050757;27;98402;-76
2023/12/30 14:17:13;;;;;;;12.45;4.28;;;;;;;;;;5047931;27;99836;-77
2023/12/30 14:19:40;;;;;;;15.65;3.60;;;;;;;;;;5048436;27;98473;-77
2023/12/30 14:22:07;;;;;;;11.00;3.83;;;;;;;;;;5048340;27;99663;-77
2023/12/30 14:24:34;;;;;;;8.75;3.22;;;;;;;;;;5052448;27;99861;-76
2023/12/30 14:27:01;;;;;;;6.68;2.70;;;;;;;;;;5047926;27;98229;-75
2023/12/30 14:29:27;;;;;;;20.48;3.95;;;;;;;;;;5047855;27;98665;-75
2023/12/30 14:31:54;;;;;;;15.13;3.28;;;;;;;;;;5045648;27;98991;-76
2023/12/30 14:34:20;;;;;;;10.23;3.53;;;;;;;;;;5047505;27;98237;-75
2023/12/30 14:36:47;;;;;;;16.05;4.40;;;;;;;;;;5051207;27;99494;-76
2023/12/30 14:39:15;;;;;;;14.82;3.63;;;;;;;;;;5046675;27;98570;-75
2023/12/30 14:41:42;;;;;;;13.90;4.25;;;;;;;;;;5050149;27;98832;-75
2023/12/30 14:44:08;;;;;;;10.25;3.58;;;;;;;;;;5047419;27;100335;-75